首页
METAR-TAF:

METAR-TAF

机场 :

Chanute, 堪薩斯州, 美国

纬度: 37-40-13N, 经度: 095-29-03W, 海拔: 305米

当前天气观测

该预报发布于34分钟前的17:52 UTC
风速5节,风向东转东北
温度 7°C
湿度 61%
气压 1022 hPa
能見度: 16.1公里
阴天层高于2400英尺

METAR: KCNU 241752Z AUTO 07005KT 10SM OVC024 07/00 A3017 RMK AO2 SLP219 T00670000 10067 20039 58024

时间: 13:26 (18:26 UTC)

预报

该预报发布于51分钟前的17:35 UTC
预报有效从24日的 18点(UTC)到 25日的 18点(UTC)
风速7节,风向
能見度: 10公里
阴天层高于2000英尺
从 25日的 1000点(UTC)
风速7节,风向东北
能見度: 10公里
阴天层高于1500英尺

TAF: KCNU 241735Z 2418/2518 09007KT P6SM OVC020 FM251000 05007KT P6SM OVC015

超过4000个机场的气象观测和天气预报(METAR&TAF报告)。

可查询的气象台以黄色和红色小点在地图上表示。

将鼠标移到小点上方,可查看气象台名称。

然后点击查看天气观测和预报。

如需切换地图:点击带黑十字的绿色按钮放大地图;点击带横线的绿色按钮缩小地图;或者点击绿色箭头查看邻近地区的地图。


METAR-TAF: